Time;durP1;ratioP1;P1;durP2;ratioP2;P2;SDS_P1;SDS_P2;PMS_P1;PMS_P2;Temp;Humidity;BMP_temperature;BMP_pressure;BME280_temperature;BME280_humidity;BME280_pressure;Samples;Min_cycle;Max_cycle;Signal;HPM_P1;HPM_P2
2023/05/02 00:02:20;;;;;;;26.17;19.77;;;11.70;99.90;;;;;;4824777;29;20257;-56
2023/05/02 00:04:48;;;;;;;24.30;19.27;;;11.70;99.90;;;;;;4824970;29;20224;-56
2023/05/02 00:07:16;;;;;;;24.10;19.17;;;11.80;99.90;;;;;;4807001;29;20705;-55
2023/05/02 00:09:46;;;;;;;27.53;20.80;;;11.90;99.90;;;;;;4806538;29;20239;-55
2023/05/02 00:12:14;;;;;;;24.40;19.87;;;11.80;99.90;;;;;;4806870;29;20232;-56
2023/05/02 00:14:42;;;;;;;24.00;18.10;;;11.80;99.90;;;;;;4821740;29;20250;-56
2023/05/02 00:17:17;;;;;;;23.10;18.20;;;11.70;99.90;;;;;;4826648;29;20247;-56
2023/05/02 00:19:46;;;;;;;21.27;16.67;;;11.70;99.90;;;;;;4831269;29;20241;-56
2023/05/02 00:22:14;;;;;;;15.87;13.77;;;11.60;99.90;;;;;;4824566;29;20848;-56
2023/05/02 00:24:42;;;;;;;17.43;14.63;;;11.60;99.90;;;;;;4836733;29;20699;-56
2023/05/02 00:27:12;;;;;;;17.50;13.70;;;11.50;99.90;;;;;;4843104;29;20639;-55
2023/05/02 00:29:41;;;;;;;20.30;14.03;;;11.50;99.90;;;;;;4842962;29;20239;-56
2023/05/02 00:32:09;;;;;;;17.47;14.10;;;11.50;99.90;;;;;;4840999;29;20246;-56
2023/05/02 00:34:37;;;;;;;18.77;14.03;;;11.40;99.90;;;;;;4840991;29;20580;-56
2023/05/02 00:37:05;;;;;;;18.57;13.63;;;11.40;99.90;;;;;;4842613;29;20227;-56
2023/05/02 00:39:34;;;;;;;21.50;15.23;;;11.40;99.90;;;;;;4842785;29;20309;-56
2023/05/02 00:42:03;;;;;;;17.70;12.73;;;11.30;99.90;;;;;;4842603;29;20234;-56
2023/05/02 00:44:32;;;;;;;18.17;14.37;;;11.30;99.90;;;;;;4828330;29;20386;-56
2023/05/02 00:47:01;;;;;;;17.87;14.53;;;11.30;99.90;;;;;;4827021;29;20235;-56
2023/05/02 00:49:30;;;;;;;17.70;14.03;;;11.40;99.90;;;;;;4835774;29;20313;-55
2023/05/02 00:51:58;;;;;;;21.27;15.43;;;11.30;99.90;;;;;;4824110;29;20724;-56
2023/05/02 00:54:26;;;;;;;20.40;15.07;;;11.30;99.90;;;;;;4823965;29;20239;-55
2023/05/02 00:56:54;;;;;;;20.93;15.10;;;11.30;99.90;;;;;;4824160;29;20700;-56
2023/05/02 00:59:23;;;;;;;19.70;14.83;;;11.20;99.90;;;;;;4824172;29;20312;-56
2023/05/02 01:02:05;;;;;;;21.63;14.33;;;11.20;99.90;;;;;;4823479;29;20254;-56
2023/05/02 01:04:43;;;;;;;21.97;13.53;;;11.10;99.90;;;;;;4822762;29;20237;-57
2023/05/02 01:07:22;;;;;;;20.23;13.73;;;11.10;99.90;;;;;;4824173;29;20328;-56
2023/05/02 01:10:01;;;;;;;25.43;14.20;;;11.10;99.90;;;;;;4822908;29;20234;-56
2023/05/02 01:12:38;;;;;;;22.23;13.20;;;11.10;99.90;;;;;;4823879;29;20763;-55
2023/05/02 01:15:10;;;;;;;23.53;13.03;;;11.00;99.90;;;;;;4815478;29;20233;-56
2023/05/02 01:17:41;;;;;;;23.43;13.43;;;11.00;99.90;;;;;;4831075;29;20227;-55
2023/05/02 01:20:17;;;;;;;21.00;11.50;;;11.10;99.90;;;;;;4827165;29;20303;-57
2023/05/02 01:22:45;;;;;;;20.80;11.97;;;11.10;99.90;;;;;;4823649;29;20236;-56
2023/05/02 01:25:26;;;;;;;16.83;10.80;;;11.00;99.90;;;;;;4824178;29;20231;-56
2023/05/02 01:28:05;;;;;;;16.03;10.43;;;11.00;99.90;;;;;;4822765;29;20292;-56
2023/05/02 01:30:38;;;;;;;15.43;10.00;;;11.00;99.90;;;;;;4823263;29;20243;-56
2023/05/02 01:33:09;;;;;;;16.00;10.40;;;11.00;99.90;;;;;;4823842;29;20223;-56
2023/05/02 01:35:38;;;;;;;14.00;9.37;;;11.00;99.90;;;;;;4837429;29;20246;-56
2023/05/02 01:38:07;;;;;;;14.43;9.10;;;10.90;99.90;;;;;;4823835;29;20228;-56
2023/05/02 01:40:38;;;;;;;13.77;9.30;;;10.90;99.90;;;;;;4823497;29;20233;-57
2023/05/02 01:43:07;;;;;;;15.40;9.33;;;10.90;99.90;;;;;;4823714;29;20737;-56
2023/05/02 01:45:38;;;;;;;14.20;8.97;;;10.90;99.90;;;;;;4823420;29;20230;-56
2023/05/02 01:48:08;;;;;;;14.17;9.00;;;10.80;99.90;;;;;;4826517;29;20235;-57
2023/05/02 01:50:39;;;;;;;14.50;9.30;;;10.90;99.90;;;;;;4831519;29;20254;-56
2023/05/02 01:53:08;;;;;;;14.57;8.50;;;10.90;99.90;;;;;;4820200;29;20314;-56
2023/05/02 01:55:37;;;;;;;12.97;8.37;;;10.80;99.90;;;;;;4826828;29;20234;-56
2023/05/02 01:58:07;;;;;;;8.80;6.03;;;10.80;99.90;;;;;;4826972;29;20242;-56
2023/05/02 02:00:37;;;;;;;8.40;5.03;;;10.80;99.90;;;;;;4825211;29;20260;-56
2023/05/02 02:03:07;;;;;;;5.80;4.30;;;10.70;99.90;;;;;;4826682;29;20739;-56
2023/05/02 02:05:36;;;;;;;3.70;2.83;;;10.60;99.90;;;;;;4826538;29;20280;-56
2023/05/02 02:08:04;;;;;;;4.07;3.10;;;10.50;99.90;;;;;;4826862;29;20595;-56
2023/05/02 02:10:43;;;;;;;4.80;2.83;;;10.40;99.90;;;;;;4825354;29;20768;-57
2023/05/02 02:13:18;;;;;;;4.33;3.30;;;10.40;99.90;;;;;;4829220;29;20245;-56
2023/05/02 02:15:50;;;;;;;4.97;3.20;;;10.30;99.90;;;;;;4826195;29;20242;-56
2023/05/02 02:18:21;;;;;;;7.17;3.87;;;10.30;99.90;;;;;;4833997;29;20239;-56
2023/05/02 02:20:52;;;;;;;8.73;4.07;;;10.20;99.90;;;;;;4830897;29;20235;-56
2023/05/02 02:23:25;;;;;;;7.57;3.63;;;10.10;99.90;;;;;;4824697;29;20241;-56
2023/05/02 02:25:55;;;;;;;8.37;4.37;;;10.00;99.90;;;;;;4822112;29;20330;-56
2023/05/02 02:28:23;;;;;;;11.57;4.10;;;9.90;99.90;;;;;;4808653;29;20759;-56
2023/05/02 02:30:53;;;;;;;11.50;4.13;;;9.80;99.90;;;;;;4807907;29;20251;-55
2023/05/02 02:33:24;;;;;;;13.33;4.27;;;9.70;99.90;;;;;;4835386;29;20233;-56
2023/05/02 02:35:58;;;;;;;14.20;4.30;;;9.60;99.90;;;;;;4844852;29;20237;-56
2023/05/02 02:38:32;;;;;;;10.20;3.53;;;9.50;99.90;;;;;;4844530;29;20320;-55
2023/05/02 02:41:12;;;;;;;10.63;3.33;;;9.40;99.90;;;;;;4844614;29;20239;-56
2023/05/02 02:43:48;;;;;;;12.73;3.83;;;9.40;99.90;;;;;;4836626;29;20723;-56
2023/05/02 02:46:32;;;;;;;10.53;4.13;;;9.30;99.90;;;;;;4825944;29;20297;-55
2023/05/02 02:49:18;;;;;;;15.40;4.00;;;9.20;99.90;;;;;;4836339;29;20225;-56
2023/05/02 02:51:53;;;;;;;11.87;3.60;;;9.20;99.90;;;;;;4823589;29;20300;-56
2023/05/02 02:54:29;;;;;;;12.90;3.30;;;9.10;99.90;;;;;;4826010;29;20240;-56
2023/05/02 02:57:03;;;;;;;11.63;4.07;;;9.10;99.90;;;;;;4825850;29;20237;-56
2023/05/02 02:59:34;;;;;;;13.30;3.73;;;9.00;99.90;;;;;;4824598;29;20694;-56
2023/05/02 03:02:07;;;;;;;10.30;3.23;;;9.10;99.90;;;;;;4823996;29;20613;-56
2023/05/02 03:04:41;;;;;;;16.13;4.17;;;9.00;99.90;;;;;;4825792;29;20228;-55
2023/05/02 03:07:10;;;;;;;11.93;3.37;;;9.00;99.90;;;;;;4825686;29;20696;-55
2023/05/02 03:09:43;;;;;;;13.93;4.33;;;8.90;99.90;;;;;;4825722;29;20387;-55
2023/05/02 03:12:16;;;;;;;15.20;3.97;;;8.90;99.90;;;;;;4825009;29;20240;-55
2023/05/02 03:14:45;;;;;;;15.77;4.10;;;9.00;99.90;;;;;;4824216;29;20624;-55
2023/05/02 03:17:15;;;;;;;15.50;3.93;;;8.90;99.90;;;;;;4830446;29;20735;-56
2023/05/02 03:19:44;;;;;;;14.20;4.37;;;8.90;99.90;;;;;;4832214;29;20308;-55
2023/05/02 03:22:12;;;;;;;15.33;4.40;;;8.90;99.90;;;;;;4830616;29;20239;-56
2023/05/02 03:24:40;;;;;;;12.43;4.33;;;8.90;99.90;;;;;;4824248;29;20230;-56
2023/05/02 03:27:10;;;;;;;20.27;4.43;;;8.80;99.90;;;;;;4824294;29;20245;-55
2023/05/02 03:29:41;;;;;;;15.33;4.17;;;8.80;99.90;;;;;;4824206;29;20240;-55
2023/05/02 03:32:11;;;;;;;18.53;4.90;;;8.80;99.90;;;;;;4823714;29;20242;-55
2023/05/02 03:34:43;;;;;;;17.70;5.00;;;8.80;99.90;;;;;;4824088;29;20229;-55
2023/05/02 03:37:12;;;;;;;17.67;4.73;;;8.60;99.90;;;;;;4835800;29;20776;-55
2023/05/02 03:39:40;;;;;;;16.07;4.20;;;8.60;99.90;;;;;;4843484;29;20696;-55
2023/05/02 03:42:08;;;;;;;12.97;4.27;;;8.60;99.90;;;;;;4843651;29;20220;-55
2023/05/02 03:44:36;;;;;;;17.27;4.40;;;8.50;99.90;;;;;;4827315;29;20647;-56
2023/05/02 03:47:05;;;;;;;16.77;4.00;;;8.40;99.90;;;;;;4827399;29;20688;-56
2023/05/02 03:49:38;;;;;;;14.93;4.17;;;8.30;99.90;;;;;;4831283;29;20268;-55
2023/05/02 03:52:09;;;;;;;20.83;4.90;;;8.30;99.90;;;;;;4831524;29;20601;-55
2023/05/02 03:54:38;;;;;;;19.47;4.50;;;8.30;99.90;;;;;;4838860;29;20271;-55
2023/05/02 03:57:06;;;;;;;20.57;4.40;;;8.30;99.90;;;;;;4831453;29;20274;-56
2023/05/02 03:59:36;;;;;;;18.17;4.93;;;8.30;99.90;;;;;;4824939;29;20735;-55
2023/05/02 04:02:13;;;;;;;15.67;4.37;;;8.20;99.90;;;;;;4823090;29;20255;-56
2023/05/02 04:04:46;;;;;;;14.73;4.30;;;8.20;99.90;;;;;;4837129;29;20236;-55
2023/05/02 04:07:18;;;;;;;17.77;4.33;;;8.10;99.90;;;;;;4805573;29;20240;-56
2023/05/02 04:09:55;;;;;;;16.03;4.10;;;8.10;99.90;;;;;;4805018;29;20765;-55
2023/05/02 04:12:23;;;;;;;17.13;4.23;;;8.10;99.90;;;;;;4806746;29;20631;-55
2023/05/02 04:14:53;;;;;;;13.90;3.77;;;8.10;99.90;;;;;;4821950;29;20247;-56
2023/05/02 04:17:25;;;;;;;20.20;4.60;;;8.10;99.90;;;;;;4827947;29;20304;-55
2023/05/02 04:19:54;;;;;;;19.63;4.53;;;8.00;99.90;;;;;;4836648;29;20250;-55
2023/05/02 04:22:26;;;;;;;19.20;4.53;;;8.00;99.90;;;;;;4830955;29;20700;-54
2023/05/02 04:25:02;;;;;;;17.37;4.37;;;8.00;99.90;;;;;;4827216;29;20259;-55
2023/05/02 04:27:31;;;;;;;20.60;4.17;;;7.90;99.90;;;;;;4827736;29;20270;-55
2023/05/02 04:29:59;;;;;;;18.10;4.00;;;7.80;99.90;;;;;;4823534;29;20241;-55
2023/05/02 04:32:29;;;;;;;14.03;3.83;;;7.90;99.90;;;;;;4834987;29;20649;-55
2023/05/02 04:34:58;;;;;;;16.33;3.73;;;8.00;99.90;;;;;;4842592;29;20723;-55
2023/05/02 04:37:28;;;;;;;15.20;4.47;;;7.90;99.90;;;;;;4842350;29;20696;-54
2023/05/02 04:39:56;;;;;;;11.63;3.70;;;7.90;99.90;;;;;;4841433;29;20659;-55
2023/05/02 04:42:27;;;;;;;17.90;4.03;;;7.90;99.90;;;;;;4841176;29;20256;-55
2023/05/02 04:45:10;;;;;;;14.50;4.13;;;8.00;99.90;;;;;;4828274;29;20238;-55
2023/05/02 04:47:38;;;;;;;14.87;3.87;;;8.00;99.90;;;;;;4828516;29;20228;-55
2023/05/02 04:50:08;;;;;;;16.10;5.23;;;8.00;99.90;;;;;;4838075;29;20301;-55
2023/05/02 04:52:38;;;;;;;14.23;4.03;;;8.10;99.90;;;;;;4826390;29;20252;-55
2023/05/02 04:55:07;;;;;;;13.07;3.87;;;8.10;99.90;;;;;;4824268;29;20260;-55
2023/05/02 04:57:35;;;;;;;14.77;4.10;;;8.10;99.90;;;;;;4822733;29;20298;-55
2023/05/02 05:00:05;;;;;;;18.07;4.40;;;8.10;99.90;;;;;;4822449;29;20261;-55
2023/05/02 05:02:33;;;;;;;14.90;3.30;;;8.00;99.90;;;;;;4823442;29;20327;-55
2023/05/02 05:05:02;;;;;;;11.47;3.57;;;8.00;99.90;;;;;;4822931;29;20236;-54
2023/05/02 05:07:30;;;;;;;12.23;3.63;;;8.00;99.90;;;;;;4823717;29;20326;-55
2023/05/02 05:10:00;;;;;;;11.90;3.60;;;8.00;99.90;;;;;;4804518;29;20236;-55
2023/05/02 05:12:34;;;;;;;13.13;3.87;;;8.00;99.90;;;;;;4805159;29;20306;-55
2023/05/02 05:15:02;;;;;;;13.37;4.17;;;8.00;99.90;;;;;;4809562;29;20688;-55
2023/05/02 05:17:30;;;;;;;18.47;3.83;;;8.00;99.90;;;;;;4831720;29;20235;-55
2023/05/02 05:19:59;;;;;;;16.03;4.20;;;8.00;99.90;;;;;;4823145;29;20320;-55
2023/05/02 05:22:28;;;;;;;13.33;3.30;;;8.00;99.90;;;;;;4820291;29;20224;-56
2023/05/02 05:24:56;;;;;;;14.10;3.57;;;8.00;99.90;;;;;;4814645;29;20593;-56
2023/05/02 05:27:31;;;;;;;14.10;4.27;;;8.00;99.90;;;;;;4811299;29;20319;-55
2023/05/02 05:30:00;;;;;;;10.20;3.73;;;8.00;99.90;;;;;;4811161;29;20236;-55
2023/05/02 05:32:30;;;;;;;9.60;3.20;;;8.00;99.90;;;;;;4809744;29;20252;-55
2023/05/02 05:34:58;;;;;;;16.07;3.80;;;8.00;99.90;;;;;;4812692;29;20256;-56
2023/05/02 05:37:28;;;;;;;9.57;3.90;;;8.00;99.90;;;;;;4812845;29;20721;-55
2023/05/02 05:39:57;;;;;;;17.23;4.23;;;8.00;99.90;;;;;;4813863;29;20230;-55
2023/05/02 05:42:27;;;;;;;14.40;3.57;;;8.10;99.90;;;;;;4809852;29;20324;-55
2023/05/02 05:45:01;;;;;;;9.13;2.93;;;8.10;99.90;;;;;;4812275;29;20996;-55
2023/05/02 05:47:29;;;;;;;11.13;3.27;;;8.00;99.90;;;;;;4829096;29;20713;-55
2023/05/02 05:49:58;;;;;;;10.33;3.07;;;7.90;99.90;;;;;;4811214;29;20573;-55
2023/05/02 05:52:29;;;;;;;17.40;3.30;;;8.00;99.90;;;;;;4809448;29;20240;-55
2023/05/02 05:55:08;;;;;;;12.33;3.27;;;8.00;99.90;;;;;;4811823;29;20236;-55
2023/05/02 05:57:36;;;;;;;12.20;3.30;;;8.10;99.90;;;;;;4811442;29;20236;-55
2023/05/02 06:00:09;;;;;;;12.63;3.30;;;8.10;99.90;;;;;;4811763;29;20240;-54
2023/05/02 06:02:47;;;;;;;13.03;3.50;;;8.10;99.90;;;;;;4828614;29;20727;-56
2023/05/02 06:05:28;;;;;;;7.70;2.80;;;8.00;99.90;;;;;;4812735;29;20869;-55
2023/05/02 06:07:56;;;;;;;10.50;3.30;;;8.10;99.90;;;;;;4811527;29;20231;-55
2023/05/02 06:10:25;;;;;;;12.63;2.93;;;8.10;99.90;;;;;;4812773;29;20232;-55
2023/05/02 06:12:53;;;;;;;11.63;3.27;;;8.10;99.90;;;;;;4809179;29;20244;-55
2023/05/02 06:15:28;;;;;;;9.30;2.80;;;8.10;99.90;;;;;;4811446;29;20277;-55
2023/05/02 06:17:56;;;;;;;9.10;3.03;;;8.10;99.90;;;;;;4812243;29;20233;-55
2023/05/02 06:20:25;;;;;;;6.73;2.90;;;8.20;99.90;;;;;;4811344;29;20236;-54
2023/05/02 06:22:53;;;;;;;11.93;3.30;;;8.10;99.90;;;;;;4809077;29;20350;-55
2023/05/02 06:25:21;;;;;;;9.87;3.33;;;8.10;99.90;;;;;;4813025;29;20260;-54
2023/05/02 06:27:49;;;;;;;8.77;2.90;;;8.10;99.90;;;;;;4812870;29;20229;-55
2023/05/02 06:30:17;;;;;;;9.40;3.10;;;8.20;99.90;;;;;;4812620;29;20236;-55
2023/05/02 06:32:47;;;;;;;8.57;3.10;;;8.20;99.90;;;;;;4810027;29;20239;-55
2023/05/02 06:35:18;;;;;;;11.90;3.23;;;8.10;99.90;;;;;;4815658;29;20228;-55
2023/05/02 06:37:48;;;;;;;9.50;2.60;;;8.10;99.90;;;;;;4815449;29;20240;-54
2023/05/02 06:40:16;;;;;;;8.87;2.93;;;8.20;99.90;;;;;;4815245;29;20285;-55
2023/05/02 06:42:45;;;;;;;7.30;2.43;;;8.20;99.90;;;;;;4813667;29;20232;-55
2023/05/02 06:45:13;;;;;;;6.70;2.60;;;8.20;99.90;;;;;;4815855;29;20232;-55
2023/05/02 06:47:41;;;;;;;10.50;2.70;;;8.20;99.90;;;;;;4815747;29;21457;-56
2023/05/02 06:50:11;;;;;;;8.67;2.90;;;8.30;99.90;;;;;;4814861;29;20240;-56
2023/05/02 06:52:39;;;;;;;13.60;3.00;;;8.30;99.90;;;;;;4812867;29;20730;-55
2023/05/02 06:55:08;;;;;;;9.57;3.00;;;8.30;99.90;;;;;;4815175;29;20236;-55
2023/05/02 06:57:36;;;;;;;6.70;2.57;;;8.40;99.90;;;;;;4814878;29;20237;-55
2023/05/02 07:00:06;;;;;;;7.87;2.50;;;8.50;99.90;;;;;;4814681;29;20229;-55
2023/05/02 07:02:34;;;;;;;7.17;2.20;;;8.60;99.90;;;;;;4812540;29;20252;-55
2023/05/02 07:05:03;;;;;;;8.70;2.37;;;8.60;99.90;;;;;;4814907;29;20236;-55
2023/05/02 07:07:33;;;;;;;7.37;2.30;;;8.60;99.90;;;;;;4814875;29;20240;-56
2023/05/02 07:10:01;;;;;;;7.63;2.17;;;8.60;99.90;;;;;;4815921;29;20241;-55
2023/05/02 07:12:35;;;;;;;6.33;2.47;;;8.60;99.90;;;;;;4815827;29;21201;-56
2023/05/02 07:15:03;;;;;;;6.80;2.10;;;8.50;99.90;;;;;;4816872;29;20239;-56
2023/05/02 07:17:32;;;;;;;6.30;2.10;;;8.50;99.90;;;;;;4817254;29;20245;-55
2023/05/02 07:20:00;;;;;;;5.70;2.17;;;8.50;99.90;;;;;;4817288;29;20352;-56
2023/05/02 07:22:29;;;;;;;6.73;1.90;;;8.60;99.90;;;;;;4815716;29;20354;-55
2023/05/02 07:25:02;;;;;;;5.57;1.80;;;8.60;99.90;;;;;;4816961;29;20267;-55
2023/05/02 07:27:30;;;;;;;5.47;1.83;;;8.60;99.90;;;;;;4816970;29;20251;-56
2023/05/02 07:29:59;;;;;;;6.60;1.73;;;8.60;99.90;;;;;;4817536;29;20324;-56
2023/05/02 07:32:28;;;;;;;6.63;2.07;;;8.60;99.90;;;;;;4813991;29;20793;-55
2023/05/02 07:34:57;;;;;;;4.67;2.00;;;8.60;99.90;;;;;;4815035;29;20313;-55
2023/05/02 07:37:25;;;;;;;4.77;1.77;;;8.60;99.90;;;;;;4815211;29;20757;-55
2023/05/02 07:39:53;;;;;;;7.43;2.30;;;8.70;99.90;;;;;;4814916;29;20639;-56
2023/05/02 07:42:23;;;;;;;6.80;1.90;;;8.80;99.90;;;;;;4813667;29;20245;-55
2023/05/02 07:44:51;;;;;;;6.13;1.97;;;8.90;99.90;;;;;;4813952;29;20241;-56
2023/05/02 07:47:19;;;;;;;7.40;2.03;;;9.00;99.90;;;;;;4816273;29;20736;-56
2023/05/02 07:49:51;;;;;;;7.50;1.97;;;9.00;99.90;;;;;;4814931;29;20277;-55
2023/05/02 07:52:19;;;;;;;7.53;1.97;;;9.00;99.90;;;;;;4814043;29;20236;-56
2023/05/02 07:54:49;;;;;;;7.63;2.03;;;8.90;99.90;;;;;;4813799;29;20236;-55
2023/05/02 07:57:18;;;;;;;7.30;1.87;;;8.80;99.90;;;;;;4814749;29;20236;-55
2023/05/02 07:59:47;;;;;;;6.73;1.90;;;8.70;99.90;;;;;;4831345;29;20244;-56
2023/05/02 08:02:18;;;;;;;2.60;1.50;;;8.60;99.90;;;;;;4812224;29;20249;-55
2023/05/02 08:04:47;;;;;;;8.87;1.80;;;8.70;99.90;;;;;;4814464;29;20347;-56
2023/05/02 08:07:18;;;;;;;5.53;1.97;;;8.80;99.90;;;;;;4814198;29;20235;-56
2023/05/02 08:09:47;;;;;;;6.90;2.13;;;9.00;99.90;;;;;;4813639;29;20658;-55
2023/05/02 08:12:16;;;;;;;4.47;1.63;;;9.10;99.90;;;;;;4814082;29;20229;-56
2023/05/02 08:14:44;;;;;;;7.50;2.07;;;9.30;99.90;;;;;;4815134;29;20640;-56
2023/05/02 08:17:13;;;;;;;3.83;1.57;;;9.40;99.90;;;;;;4815555;29;20240;-55
2023/05/02 08:19:42;;;;;;;8.00;1.77;;;9.50;99.90;;;;;;4813516;29;20260;-55
2023/05/02 08:22:10;;;;;;;6.97;1.70;;;9.60;99.90;;;;;;4815047;29;20706;-56
2023/05/02 08:24:38;;;;;;;4.17;1.40;;;10.00;99.90;;;;;;4816401;29;20710;-56
2023/05/02 08:27:06;;;;;;;5.37;1.70;;;10.60;99.90;;;;;;4816901;29;20265;-56
2023/05/02 08:29:34;;;;;;;4.30;1.43;;;11.00;99.90;;;;;;4815963;29;20315;-56
2023/05/02 08:32:06;;;;;;;3.00;1.37;;;10.80;99.90;;;;;;4814156;29;20253;-56
2023/05/02 08:34:35;;;;;;;6.27;1.67;;;10.30;99.90;;;;;;4816466;29;20248;-56
2023/05/02 08:37:08;;;;;;;5.87;1.80;;;9.80;99.90;;;;;;4816398;29;20234;-55
2023/05/02 08:39:36;;;;;;;5.10;1.90;;;9.60;99.90;;;;;;4813307;29;20245;-56
2023/05/02 08:42:07;;;;;;;4.23;1.60;;;9.50;99.90;;;;;;4812362;29;20236;-56
2023/05/02 08:44:35;;;;;;;4.67;1.60;;;9.40;99.90;;;;;;4813615;29;20252;-56
2023/05/02 08:47:04;;;;;;;5.27;2.23;;;9.40;99.90;;;;;;4813339;29;20238;-55
2023/05/02 08:49:34;;;;;;;4.50;1.30;;;9.50;99.90;;;;;;4813176;29;20238;-56
2023/05/02 08:52:05;;;;;;;4.40;1.50;;;9.50;99.90;;;;;;4812355;29;20262;-56
2023/05/02 08:54:34;;;;;;;4.33;1.40;;;9.80;99.90;;;;;;4815945;29;20242;-56
2023/05/02 08:57:04;;;;;;;5.87;1.77;;;10.40;99.90;;;;;;4816312;29;20606;-56
2023/05/02 08:59:33;;;;;;;4.03;1.50;;;11.00;99.90;;;;;;4815366;29;20241;-56
2023/05/02 09:02:09;;;;;;;4.70;1.50;;;11.50;99.90;;;;;;4813968;29;20247;-55
2023/05/02 09:04:41;;;;;;;2.07;1.33;;;11.60;99.90;;;;;;4815205;29;20240;-56
2023/05/02 09:07:11;;;;;;;4.63;1.40;;;11.20;99.90;;;;;;4816313;29;20722;-56
2023/05/02 09:09:39;;;;;;;3.43;1.10;;;10.80;99.90;;;;;;4815267;29;20706;-56
2023/05/02 09:12:08;;;;;;;3.47;1.07;;;10.50;99.90;;;;;;4813330;29;20245;-56
2023/05/02 09:14:36;;;;;;;2.27;0.97;;;10.20;99.90;;;;;;4813349;29;20245;-55
2023/05/02 09:17:04;;;;;;;3.27;1.33;;;10.30;99.90;;;;;;4813303;29;20718;-56
2023/05/02 09:19:32;;;;;;;3.10;1.00;;;11.00;99.90;;;;;;4813446;29;20246;-56
2023/05/02 09:22:01;;;;;;;3.37;1.10;;;11.90;99.90;;;;;;4811429;29;21043;-56
2023/05/02 09:24:31;;;;;;;4.47;1.20;;;12.50;99.90;;;;;;4815420;29;20253;-56
2023/05/02 09:27:01;;;;;;;3.10;1.20;;;12.50;99.90;;;;;;4815692;29;20242;-57
2023/05/02 09:29:34;;;;;;;4.50;1.47;;;11.90;99.90;;;;;;4812836;29;20239;-57
2023/05/02 09:32:04;;;;;;;2.70;1.40;;;11.30;99.90;;;;;;4811720;29;20625;-57
2023/05/02 09:34:33;;;;;;;4.10;1.43;;;10.90;99.90;;;;;;4812451;29;20247;-56
2023/05/02 09:37:05;;;;;;;2.33;1.30;;;10.70;99.90;;;;;;4813405;29;20265;-56
2023/05/02 09:39:34;;;;;;;3.50;1.20;;;10.50;99.90;;;;;;4814796;29;21500;-55
2023/05/02 09:42:05;;;;;;;4.00;1.30;;;10.50;99.90;;;;;;4814616;29;20253;-56
2023/05/02 09:44:38;;;;;;;4.73;1.40;;;10.80;99.90;;;;;;4815305;29;20242;-57
2023/05/02 09:47:08;;;;;;;5.80;1.20;;;11.20;99.90;;;;;;4815748;29;20245;-56
2023/05/02 09:49:40;;;;;;;5.77;1.23;;;11.40;99.90;;;;;;4815910;29;20239;-56
2023/05/02 09:52:13;;;;;;;4.27;1.10;;;11.50;99.90;;;;;;4814052;29;21416;-56
2023/05/02 09:54:42;;;;;;;4.10;1.33;;;11.60;99.90;;;;;;4814467;29;20270;-55
2023/05/02 09:57:11;;;;;;;5.93;1.40;;;11.50;99.90;;;;;;4815099;29;20250;-56
2023/05/02 09:59:39;;;;;;;7.97;2.03;;;11.40;99.90;;;;;;4814231;29;21454;-57
2023/05/02 10:02:10;;;;;;;4.43;1.60;;;11.30;99.90;;;;;;4810211;29;20266;-55
2023/05/02 10:04:39;;;;;;;5.90;1.43;;;11.70;99.90;;;;;;4811876;29;20272;-56
2023/05/02 10:07:09;;;;;;;4.47;1.77;;;12.00;99.90;;;;;;4812859;29;20242;-57
2023/05/02 10:09:45;;;;;;;3.60;1.33;;;11.80;99.90;;;;;;4815425;29;20315;-56
2023/05/02 10:12:15;;;;;;;7.23;1.63;;;11.30;99.90;;;;;;4813291;29;20322;-57
2023/05/02 10:14:49;;;;;;;4.43;1.30;;;10.80;99.90;;;;;;4815027;29;20243;-55
2023/05/02 10:17:22;;;;;;;5.20;1.53;;;10.70;99.90;;;;;;4835442;29;20242;-56
2023/05/02 10:19:57;;;;;;;4.00;1.10;;;10.50;99.90;;;;;;4814984;29;20311;-56
2023/05/02 10:22:26;;;;;;;2.60;0.83;;;10.30;99.90;;;;;;4814791;29;20231;-56
2023/05/02 10:24:59;;;;;;;3.60;0.90;;;10.20;99.90;;;;;;4816152;29;20635;-56
2023/05/02 10:27:30;;;;;;;2.07;1.00;;;10.00;99.90;;;;;;4814756;29;20253;-56
2023/05/02 10:29:59;;;;;;;1.77;0.80;;;10.10;99.90;;;;;;4815259;29;20230;-56
2023/05/02 10:32:28;;;;;;;1.27;0.87;;;10.20;99.90;;;;;;4813012;29;20274;-56
2023/05/02 10:34:57;;;;;;;2.97;0.87;;;10.20;99.90;;;;;;4814959;29;20273;-56
2023/05/02 10:37:27;;;;;;;3.83;1.00;;;10.40;99.90;;;;;;4815188;29;20295;-56
2023/05/02 10:39:57;;;;;;;2.87;0.80;;;10.60;99.90;;;;;;4817375;29;20267;-56
2023/05/02 10:42:26;;;;;;;3.20;0.80;;;10.90;99.90;;;;;;4817228;29;20715;-55
2023/05/02 10:44:54;;;;;;;3.17;0.83;;;11.10;99.90;;;;;;4817674;29;20267;-56
2023/05/02 10:47:23;;;;;;;2.67;0.90;;;11.30;99.90;;;;;;4818357;29;20242;-56
2023/05/02 10:49:53;;;;;;;2.30;0.90;;;11.60;99.90;;;;;;4817855;29;20250;-57
2023/05/02 10:52:29;;;;;;;2.80;1.00;;;11.70;99.90;;;;;;4816189;29;20242;-56
2023/05/02 10:55:33;;;;;;;2.40;1.03;;;11.90;99.90;;;;;;4813964;29;20247;-55
2023/05/02 10:58:21;;;;;;;2.10;1.13;;;11.90;99.90;;;;;;4747665;30;20246;-55
2023/05/02 11:00:49;;;;;;;1.50;1.00;;;12.50;99.90;;;;;;4747856;30;20327;-55
2023/05/02 11:03:51;;;;;;;3.70;1.40;;;12.70;99.90;;;;;;4787042;29;20590;-56
2023/05/02 11:06:19;;;;;;;5.07;1.20;;;12.40;99.90;;;;;;4817327;29;20714;-56
2023/05/02 11:08:47;;;;;;;4.10;1.00;;;12.00;99.90;;;;;;4817750;29;20261;-57
2023/05/02 11:11:41;;;;;;;3.33;1.13;;;11.60;99.90;;;;;;4817483;29;20285;-55
2023/05/02 11:14:10;;;;;;;5.17;1.33;;;11.40;99.90;;;;;;4814334;29;21090;-56
2023/05/02 11:17:07;;;;;;;3.43;1.23;;;11.40;99.90;;;;;;4816557;29;20243;-56
2023/05/02 11:20:26;;;;;;;1.47;0.90;;;11.60;99.90;;;;;;4815873;29;20258;-56
2023/05/02 11:23:25;;;;;;;2.80;1.00;;;12.00;99.90;;;;;;4815599;29;20239;-56
2023/05/02 11:25:55;;;;;;;4.77;1.27;;;11.90;99.90;;;;;;4817276;29;20294;-56
2023/05/02 11:28:46;;;;;;;5.80;1.43;;;11.60;99.90;;;;;;4817245;29;20273;-56
2023/05/02 11:32:01;;;;;;;4.53;1.30;;;11.30;99.90;;;;;;4814715;29;20250;-56
2023/05/02 11:34:39;;;;;;;5.63;1.63;;;11.20;99.90;;;;;;4812830;29;20682;-57
2023/05/02 11:37:13;;;;;;;4.00;1.20;;;11.20;99.90;;;;;;4813620;29;20250;-57
2023/05/02 11:39:41;;;;;;;5.13;1.40;;;11.20;99.90;;;;;;4813047;29;20239;-55
2023/05/02 11:42:09;;;;;;;4.07;1.20;;;11.00;99.90;;;;;;4813114;29;20335;-56
2023/05/02 11:44:57;;;;;;;3.53;1.30;;;10.80;99.90;;;;;;4813545;29;20246;-56
2023/05/02 11:47:28;;;;;;;2.37;1.20;;;10.80;99.90;;;;;;4816815;29;20249;-55
2023/05/02 11:49:58;;;;;;;2.77;1.10;;;10.80;99.90;;;;;;4817225;29;20246;-56
2023/05/02 11:52:26;;;;;;;3.17;1.40;;;10.90;99.90;;;;;;4815897;29;20712;-56
2023/05/02 11:54:55;;;;;;;3.33;1.17;;;11.20;99.90;;;;;;4817108;29;20258;-56
2023/05/02 11:57:24;;;;;;;2.37;1.20;;;11.40;99.90;;;;;;4813987;29;20242;-56
2023/05/02 11:59:53;;;;;;;3.33;1.30;;;11.30;99.90;;;;;;4814755;29;21431;-56
2023/05/02 12:02:36;;;;;;;3.70;1.27;;;11.20;99.90;;;;;;4811741;29;20257;-56
2023/05/02 12:05:06;;;;;;;2.83;1.30;;;11.10;99.90;;;;;;4813437;29;20276;-56
2023/05/02 12:07:36;;;;;;;5.63;1.33;;;11.10;99.90;;;;;;4813823;29;20326;-55
2023/05/02 12:10:06;;;;;;;2.33;1.20;;;11.10;99.90;;;;;;4813823;29;20272;-55
2023/05/02 12:12:34;;;;;;;2.00;1.10;;;11.00;99.90;;;;;;4812852;29;20235;-56
2023/05/02 12:15:05;;;;;;;5.30;1.40;;;11.00;99.90;;;;;;4816120;29;20242;-56
2023/05/02 12:17:39;;;;;;;3.03;1.00;;;11.00;99.90;;;;;;4816501;29;20762;-55
2023/05/02 12:20:09;;;;;;;2.90;1.17;;;11.00;99.90;;;;;;4818103;29;20589;-56
2023/05/02 12:22:37;;;;;;;5.50;1.03;;;10.90;99.90;;;;;;4814601;29;20250;-56
2023/05/02 12:25:07;;;;;;;2.60;1.30;;;10.90;99.90;;;;;;4816898;29;20243;-56
2023/05/02 12:27:36;;;;;;;3.27;1.20;;;10.90;99.90;;;;;;4832527;29;20262;-56
2023/05/02 12:30:06;;;;;;;4.00;1.10;;;11.00;99.90;;;;;;4817083;29;20323;-55
2023/05/02 12:32:36;;;;;;;5.83;1.33;;;11.10;99.90;;;;;;4814185;29;20237;-55
2023/05/02 12:35:21;;;;;;;5.00;1.37;;;11.30;99.90;;;;;;4815181;29;20529;-56
2023/05/02 12:37:50;;;;;;;4.17;1.50;;;11.40;99.90;;;;;;4815652;29;20299;-56
2023/05/02 12:40:18;;;;;;;5.37;1.67;;;11.80;99.90;;;;;;4815601;29;20247;-55
2023/05/02 12:42:59;;;;;;;5.10;1.70;;;12.20;99.90;;;;;;4815458;29;20350;-56
2023/05/02 12:45:32;;;;;;;3.90;1.20;;;12.10;99.90;;;;;;4815607;29;20238;-55
2023/05/02 12:48:18;;;;;;;1.83;1.00;;;11.60;99.90;;;;;;4816149;29;20242;-55
2023/05/02 12:50:49;;;;;;;3.10;1.20;;;11.20;99.90;;;;;;4812889;29;20259;-55
2023/05/02 12:53:17;;;;;;;4.27;1.20;;;11.20;99.90;;;;;;4812453;29;20318;-55
2023/05/02 12:55:46;;;;;;;2.87;1.10;;;11.20;99.90;;;;;;4812245;29;20248;-56
2023/05/02 12:58:15;;;;;;;3.27;1.20;;;11.30;99.90;;;;;;4813577;29;20227;-56
2023/05/02 13:00:44;;;;;;;5.47;1.37;;;11.30;99.90;;;;;;4815150;29;20414;-56
2023/05/02 13:03:16;;;;;;;6.23;1.60;;;11.50;99.90;;;;;;4814443;29;20247;-56
2023/05/02 13:05:44;;;;;;;4.80;1.30;;;11.60;99.90;;;;;;4815666;29;20329;-56
2023/05/02 13:08:12;;;;;;;3.87;1.20;;;11.70;99.90;;;;;;4816420;29;20257;-56